createdAt,value
2022-10-18T00:00:50.085Z,38.63
2022-10-18T00:03:17.471Z,38.72
2022-10-18T00:05:44.596Z,38.70
2022-10-18T00:08:11.723Z,38.51
2022-10-18T00:10:39.114Z,38.73
2022-10-18T00:13:06.236Z,38.65
2022-10-18T00:15:33.365Z,38.35
2022-10-18T00:18:00.893Z,38.46
2022-10-18T00:20:28.167Z,38.43
2022-10-18T00:22:55.288Z,38.57
2022-10-18T00:25:22.727Z,38.59
2022-10-18T00:27:49.849Z,38.41
2022-10-18T00:30:17.002Z,38.41
2022-10-18T00:32:44.383Z,38.46
2022-10-18T00:35:11.511Z,38.90
2022-10-18T00:37:38.643Z,38.77
2022-10-18T00:40:06.277Z,38.70
2022-10-18T00:42:34.553Z,38.90
2022-10-18T00:45:04.763Z,38.71
2022-10-18T00:47:32.161Z,38.60
2022-10-18T00:50:00.695Z,38.65
2022-10-18T00:52:34.152Z,38.51
2022-10-18T00:55:01.736Z,38.48
2022-10-18T00:57:28.848Z,38.74
2022-10-18T00:59:55.973Z,38.52
2022-10-18T01:02:23.378Z,38.34
2022-10-18T01:04:50.513Z,38.36
2022-10-18T01:07:20.750Z,38.30
2022-10-18T01:09:58.675Z,38.48
2022-10-18T01:12:30.536Z,38.62
2022-10-18T01:15:00.656Z,38.79
2022-10-18T01:17:48.080Z,39.00
2022-10-18T01:20:33.951Z,38.78
2022-10-18T01:23:18.141Z,38.84
2022-10-18T01:26:04.459Z,39.37
2022-10-18T01:28:31.579Z,39.28
2022-10-18T01:30:59.515Z,39.47
2022-10-18T01:33:28.381Z,39.39
2022-10-18T01:36:11.754Z,39.42
2022-10-18T01:38:39.153Z,40.17
2022-10-18T01:41:06.277Z,39.66
2022-10-18T01:43:33.400Z,39.30
2022-10-18T01:46:00.805Z,39.58
2022-10-18T01:48:28.007Z,39.53
2022-10-18T01:50:55.127Z,39.42
2022-10-18T01:53:26.762Z,39.08
2022-10-18T01:56:12.680Z,39.30
2022-10-18T01:58:40.030Z,39.45
2022-10-18T02:01:08.802Z,39.61
2022-10-18T02:03:36.250Z,39.48
2022-10-18T02:06:20.610Z,39.36
2022-10-18T02:08:52.467Z,39.29
2022-10-18T02:11:19.596Z,39.28
2022-10-18T02:13:48.292Z,39.71
2022-10-18T02:16:26.449Z,39.90
2022-10-18T02:18:58.195Z,39.93
2022-10-18T02:21:25.580Z,39.67
2022-10-18T02:23:52.694Z,40.05
2022-10-18T02:26:19.844Z,39.91
2022-10-18T02:28:47.253Z,40.00
2022-10-18T02:31:53.042Z,40.06
2022-10-18T02:34:21.126Z,40.16
2022-10-18T02:36:50.493Z,41.15
2022-10-18T02:39:25.584Z,41.76
2022-10-18T02:41:53.511Z,41.74
2022-10-18T02:44:20.635Z,41.66
2022-10-18T02:46:47.815Z,41.07
2022-10-18T02:49:15.289Z,40.57
2022-10-18T02:51:42.410Z,40.55
2022-10-18T02:54:09.523Z,41.12
2022-10-18T02:56:36.899Z,41.85
2022-10-18T02:59:05.656Z,41.20
2022-10-18T03:01:33.392Z,40.96
2022-10-18T03:04:01.428Z,40.63
2022-10-18T03:06:28.560Z,40.22
2022-10-18T03:08:55.776Z,39.98
2022-10-18T03:11:23.654Z,40.30
2022-10-18T03:13:51.116Z,40.17
2022-10-18T03:16:18.223Z,40.05
2022-10-18T03:18:45.659Z,40.17
2022-10-18T03:21:12.760Z,40.14
2022-10-18T03:23:41.788Z,40.45
2022-10-18T03:26:09.354Z,40.10
2022-10-18T03:28:36.528Z,39.90
2022-10-18T03:31:04.225Z,39.88
2022-10-18T03:33:31.856Z,40.00
2022-10-18T03:35:59.068Z,40.42
2022-10-18T03:38:26.220Z,40.04
2022-10-18T03:40:53.812Z,41.41
2022-10-18T03:43:20.964Z,41.08
2022-10-18T03:45:48.126Z,40.78
2022-10-18T03:48:15.511Z,40.63
2022-10-18T03:50:43.173Z,41.61
2022-10-18T03:53:10.458Z,41.22
2022-10-18T03:55:37.909Z,41.03
2022-10-18T03:58:05.041Z,41.16
2022-10-18T04:00:32.381Z,40.95
2022-10-18T04:02:59.765Z,40.47
2022-10-18T04:05:28.488Z,41.03
2022-10-18T04:07:55.597Z,40.61
2022-10-18T04:10:23.134Z,40.38
2022-10-18T04:12:50.251Z,40.09
2022-10-18T04:15:17.507Z,40.05
2022-10-18T04:17:44.892Z,39.96
2022-10-18T04:20:14.719Z,40.12
2022-10-18T04:22:44.847Z,40.36
2022-10-18T04:25:12.305Z,40.64
2022-10-18T04:27:39.412Z,41.35
2022-10-18T04:30:06.744Z,41.34
2022-10-18T04:32:35.401Z,41.37
2022-10-18T04:35:03.084Z,41.63
2022-10-18T04:37:30.581Z,41.53
2022-10-18T04:39:58.200Z,41.29
2022-10-18T04:42:25.342Z,40.85
2022-10-18T04:44:52.469Z,40.94
2022-10-18T04:47:19.974Z,41.37
2022-10-18T04:49:47.108Z,41.23
2022-10-18T04:52:14.281Z,41.17
2022-10-18T04:54:41.657Z,41.03
2022-10-18T04:57:08.798Z,40.67
2022-10-18T04:59:37.194Z,40.82
2022-10-18T05:02:04.899Z,41.05
2022-10-18T05:04:32.086Z,41.28
2022-10-18T05:06:59.263Z,40.84
2022-10-18T05:09:26.665Z,40.70
2022-10-18T05:11:53.811Z,40.75
2022-10-18T05:14:32.299Z,41.00
2022-10-18T05:16:59.697Z,40.71
2022-10-18T05:19:26.816Z,40.75
2022-10-18T05:21:53.940Z,40.30
2022-10-18T05:24:23.044Z,40.27
2022-10-18T05:26:52.660Z,40.41
2022-10-18T05:29:19.898Z,39.83
2022-10-18T05:31:48.240Z,44.63
2022-10-18T05:34:15.430Z,41.81
2022-10-18T05:36:42.776Z,41.38
2022-10-18T05:39:10.178Z,41.05
2022-10-18T05:41:37.332Z,40.82
2022-10-18T05:44:05.053Z,41.56
2022-10-18T05:46:32.590Z,42.51
2022-10-18T05:48:59.721Z,42.21
2022-10-18T05:51:26.823Z,41.98
2022-10-18T05:53:54.795Z,42.45
2022-10-18T05:56:22.033Z,42.66
2022-10-18T05:58:51.989Z,42.81
2022-10-18T06:01:19.399Z,43.13
2022-10-18T06:03:46.849Z,42.91
2022-10-18T06:06:14.142Z,42.04
2022-10-18T06:08:41.552Z,42.04
2022-10-18T06:11:13.110Z,42.28
2022-10-18T06:13:43.729Z,42.58
2022-10-18T06:16:11.512Z,41.88
2022-10-18T06:18:38.773Z,42.34
2022-10-18T06:21:06.054Z,42.25
2022-10-18T06:23:33.727Z,42.21
2022-10-18T06:26:01.937Z,43.01
2022-10-18T06:28:29.885Z,43.10
2022-10-18T06:30:57.751Z,42.98
2022-10-18T06:33:24.980Z,43.94
2022-10-18T06:35:55.998Z,43.80
2022-10-18T06:38:23.385Z,44.70
2022-10-18T06:40:50.494Z,45.12
2022-10-18T06:43:20.945Z,44.48
2022-10-18T06:45:49.267Z,44.09
2022-10-18T06:48:16.693Z,45.37
2022-10-18T06:50:50.430Z,44.71
2022-10-18T06:53:17.801Z,44.37
2022-10-18T06:55:44.917Z,45.64
2022-10-18T06:58:12.043Z,44.11
2022-10-18T07:00:39.527Z,44.30
2022-10-18T07:03:06.940Z,44.69
2022-10-18T07:08:06.342Z,44.53
2022-10-18T07:10:33.473Z,44.48
2022-10-18T07:13:20.059Z,43.62
2022-10-18T07:15:48.164Z,44.49
2022-10-18T07:18:15.644Z,44.39
2022-10-18T07:20:42.778Z,43.96
2022-10-18T07:23:11.677Z,43.71
2022-10-18T07:25:38.752Z,43.30
2022-10-18T07:28:06.058Z,42.81
2022-10-18T07:30:34.020Z,43.26
2022-10-18T07:33:01.271Z,43.46
2022-10-18T07:35:28.422Z,42.64
2022-10-18T07:37:55.871Z,41.60
2022-10-18T07:40:23.005Z,40.75
2022-10-18T07:42:50.132Z,38.88
2022-10-18T07:45:17.545Z,40.41
2022-10-18T07:47:44.692Z,39.94
2022-10-18T07:50:11.808Z,41.45
2022-10-18T07:52:39.272Z,40.16
2022-10-18T07:55:06.470Z,41.32
2022-10-18T07:57:33.928Z,40.12
2022-10-18T08:00:01.563Z,40.45
2022-10-18T08:02:38.578Z,39.47
2022-10-18T08:05:05.966Z,39.25
2022-10-18T08:07:33.797Z,40.28
2022-10-18T08:10:01.197Z,39.86
2022-10-18T08:12:28.607Z,40.27
2022-10-18T08:14:55.725Z,39.21
2022-10-18T08:17:22.846Z,39.51
2022-10-18T08:20:04.682Z,38.38
2022-10-18T08:22:37.352Z,37.84
2022-10-18T08:25:04.850Z,37.01
2022-10-18T08:27:32.265Z,37.41
2022-10-18T08:30:01.884Z,37.03
2022-10-18T08:32:29.516Z,37.13
2022-10-18T08:34:56.885Z,36.24
2022-10-18T08:37:24.013Z,36.65
2022-10-18T08:39:51.442Z,36.62
2022-10-18T08:42:40.120Z,35.14
2022-10-18T08:45:17.745Z,35.90
2022-10-18T08:47:57.814Z,35.20
2022-10-18T08:50:34.811Z,34.98
2022-10-18T08:53:16.714Z,34.85
2022-10-18T08:55:52.588Z,34.86
2022-10-18T08:58:20.947Z,34.18
2022-10-18T09:00:52.698Z,34.24
2022-10-18T09:03:26.019Z,31.57
2022-10-18T09:05:55.169Z,34.10
2022-10-18T09:08:28.937Z,33.16
2022-10-18T09:11:15.238Z,33.47
2022-10-18T09:14:01.012Z,34.81
2022-10-18T09:16:50.691Z,33.58
2022-10-18T09:19:41.046Z,32.63
2022-10-18T09:22:15.199Z,32.09
2022-10-18T09:24:45.354Z,34.34
2022-10-18T09:27:16.734Z,32.93
2022-10-18T09:29:53.953Z,34.25
2022-10-18T09:32:24.947Z,31.26
2022-10-18T09:34:53.598Z,31.10
2022-10-18T09:37:21.162Z,32.89
2022-10-18T09:39:48.763Z,32.17
2022-10-18T09:42:26.793Z,31.41
2022-10-18T09:44:55.918Z,34.17
2022-10-18T09:47:24.827Z,34.04
2022-10-18T09:49:51.975Z,33.92
2022-10-18T09:52:19.939Z,32.08
2022-10-18T09:54:48.104Z,32.40
2022-10-18T09:57:17.032Z,31.71
2022-10-18T09:59:47.981Z,31.82
2022-10-18T10:02:19.584Z,32.08
2022-10-18T10:04:47.021Z,32.58
2022-10-18T10:07:18.429Z,33.35
2022-10-18T10:09:49.507Z,31.17
2022-10-18T10:12:27.869Z,32.13
2022-10-18T10:14:54.995Z,32.24
2022-10-18T10:17:29.763Z,32.23
2022-10-18T10:20:02.174Z,32.58
2022-10-18T10:22:35.191Z,30.99
2022-10-18T10:25:02.615Z,31.28
2022-10-18T10:27:43.523Z,32.15
2022-10-18T10:30:24.275Z,30.93
2022-10-18T10:32:52.196Z,31.28
2022-10-18T10:35:53.114Z,31.89
2022-10-18T10:38:25.364Z,32.23
2022-10-18T10:40:52.657Z,31.54
2022-10-18T10:43:39.322Z,30.91
2022-10-18T10:46:11.633Z,32.09
2022-10-18T10:48:49.035Z,30.90
2022-10-18T10:51:17.481Z,31.48
2022-10-18T10:54:03.921Z,30.66
2022-10-18T10:56:38.105Z,30.70
2022-10-18T10:59:15.826Z,31.37
2022-10-18T11:01:43.861Z,29.44
2022-10-18T11:04:25.114Z,30.30
2022-10-18T11:07:12.755Z,31.10
2022-10-18T11:09:49.282Z,30.45
2022-10-18T11:12:35.735Z,30.74
2022-10-18T11:15:21.849Z,29.12
2022-10-18T11:20:23.076Z,29.33
2022-10-18T11:22:56.820Z,30.80
2022-10-18T11:25:25.377Z,29.95
2022-10-18T11:28:01.638Z,30.59
2022-10-18T11:30:37.938Z,28.40
2022-10-18T11:33:25.551Z,27.66
2022-10-18T11:36:04.705Z,26.89
2022-10-18T11:38:35.065Z,28.08
2022-10-18T11:41:08.374Z,27.28
2022-10-18T11:43:57.473Z,28.79
2022-10-18T11:46:32.400Z,28.96
2022-10-18T11:49:07.032Z,28.58
2022-10-18T11:51:56.037Z,28.79
2022-10-18T11:54:32.164Z,30.33
2022-10-18T11:57:08.619Z,29.98
2022-10-18T11:59:37.907Z,28.45
2022-10-18T12:02:23.935Z,27.91
2022-10-18T12:04:58.373Z,29.82
2022-10-18T12:07:36.825Z,27.97
2022-10-18T12:10:04.546Z,28.73
2022-10-18T12:12:32.351Z,28.42
2022-10-18T12:15:01.862Z,28.79
2022-10-18T12:17:48.937Z,28.19
2022-10-18T12:20:17.947Z,28.59
2022-10-18T12:23:02.379Z,29.19
2022-10-18T12:25:30.374Z,28.05
2022-10-18T12:28:07.112Z,26.95
2022-10-18T12:30:54.550Z,28.39
2022-10-18T12:33:28.429Z,28.54
2022-10-18T12:36:16.847Z,27.91
2022-10-18T12:38:45.091Z,27.68
2022-10-18T12:41:28.631Z,26.79
2022-10-18T12:44:01.018Z,28.57
2022-10-18T12:46:47.040Z,28.20
2022-10-18T12:49:14.706Z,27.82
2022-10-18T12:51:55.069Z,29.44
2022-10-18T12:54:24.500Z,27.29
2022-10-18T12:56:51.675Z,29.58
2022-10-18T12:59:18.769Z,27.61
2022-10-18T13:01:55.592Z,29.67
2022-10-18T13:04:28.952Z,27.67
2022-10-18T13:06:56.397Z,27.20
2022-10-18T13:09:30.397Z,27.79
2022-10-18T13:12:21.176Z,29.75
2022-10-18T13:15:23.995Z,27.60
2022-10-18T13:17:56.333Z,29.98
2022-10-18T13:20:27.401Z,26.30
2022-10-18T13:23:07.373Z,29.98
2022-10-18T13:25:53.373Z,28.30
2022-10-18T13:28:23.990Z,29.58
2022-10-18T13:31:20.624Z,29.90
2022-10-18T13:33:48.077Z,27.92
2022-10-18T13:36:22.751Z,28.28
2022-10-18T13:38:55.613Z,29.21
2022-10-18T13:44:13.529Z,28.51
2022-10-18T13:46:42.678Z,28.30
2022-10-18T13:49:28.963Z,29.40
2022-10-18T13:52:08.379Z,29.56
2022-10-18T13:54:50.886Z,30.48
2022-10-18T13:57:18.022Z,30.53
2022-10-18T13:59:52.082Z,30.91
2022-10-18T14:02:30.776Z,30.49
2022-10-18T14:05:26.573Z,31.14
2022-10-18T14:07:57.856Z,31.17
2022-10-18T14:11:02.385Z,32.06
2022-10-18T14:13:36.852Z,31.52
2022-10-18T14:16:06.157Z,31.18
2022-10-18T14:18:34.492Z,31.31
2022-10-18T14:21:13.776Z,30.75
2022-10-18T14:23:42.747Z,31.43
2022-10-18T14:26:13.877Z,31.09
2022-10-18T14:28:59.053Z,31.02
2022-10-18T14:31:26.848Z,31.41
2022-10-18T14:33:57.672Z,31.72
2022-10-18T14:36:36.888Z,31.62
2022-10-18T14:39:05.272Z,31.40
2022-10-18T14:41:33.336Z,31.44
2022-10-18T14:44:14.887Z,31.45
2022-10-18T14:46:46.689Z,31.60
2022-10-18T14:49:14.453Z,31.74
2022-10-18T14:51:43.067Z,31.49
2022-10-18T14:56:42.199Z,31.35
2022-10-18T14:59:14.531Z,31.77
2022-10-18T15:01:42.641Z,31.51
2022-10-18T15:04:10.309Z,31.49
2022-10-18T15:06:41.586Z,31.35
2022-10-18T15:09:09.154Z,31.51
2022-10-18T15:11:36.798Z,31.70
2022-10-18T15:14:06.916Z,31.48
2022-10-18T15:16:34.530Z,31.65
2022-10-18T15:19:04.791Z,31.98
2022-10-18T15:21:32.678Z,31.99
2022-10-18T15:24:18.979Z,32.07
2022-10-18T15:26:46.135Z,32.07
2022-10-18T15:29:17.211Z,31.86
2022-10-18T15:31:44.596Z,31.74
2022-10-18T15:34:24.875Z,31.82
2022-10-18T15:36:53.065Z,31.79
2022-10-18T15:39:24.702Z,31.76
2022-10-18T15:41:53.117Z,31.59
2022-10-18T15:44:20.248Z,31.50
2022-10-18T15:46:50.620Z,31.23
2022-10-18T15:49:21.020Z,31.60
2022-10-18T15:51:49.744Z,31.46
2022-10-18T15:54:20.248Z,31.64
2022-10-18T15:56:47.764Z,31.09
2022-10-18T15:59:21.992Z,30.97
2022-10-18T16:01:49.399Z,31.03
2022-10-18T16:04:23.050Z,31.08
2022-10-18T16:06:50.452Z,30.87
2022-10-18T16:09:18.725Z,30.79
2022-10-18T16:11:45.902Z,30.98
2022-10-18T16:14:13.082Z,30.90
2022-10-18T16:16:40.886Z,31.07
2022-10-18T16:19:08.107Z,31.00
2022-10-18T16:21:36.280Z,31.18
2022-10-18T16:24:03.913Z,31.22
2022-10-18T16:26:31.215Z,31.43
2022-10-18T16:28:58.637Z,31.46
2022-10-18T16:31:30.315Z,31.73
2022-10-18T16:33:57.654Z,31.75
2022-10-18T16:36:31.447Z,31.92
2022-10-18T16:39:00.846Z,31.33
2022-10-18T16:41:28.072Z,31.01
2022-10-18T16:43:55.202Z,31.19
2022-10-18T16:46:24.105Z,31.16
2022-10-18T16:48:51.382Z,31.45
2022-10-18T16:51:18.500Z,30.95
2022-10-18T16:53:46.315Z,30.99
2022-10-18T16:56:17.100Z,30.96
2022-10-18T16:58:44.575Z,31.02
2022-10-18T17:01:12.992Z,31.46
2022-10-18T17:03:40.211Z,31.16
2022-10-18T17:06:10.842Z,31.50
2022-10-18T17:08:38.641Z,31.81
2022-10-18T17:11:06.381Z,31.87
2022-10-18T17:13:33.612Z,31.46
2022-10-18T17:16:04.575Z,31.57
2022-10-18T17:18:32.216Z,31.94
2022-10-18T17:21:02.815Z,31.67
2022-10-18T17:23:30.741Z,31.49
2022-10-18T17:26:05.409Z,31.48
2022-10-18T17:28:38.496Z,31.79
2022-10-18T17:31:06.828Z,32.64
2022-10-18T17:33:37.712Z,32.04
2022-10-18T17:36:05.535Z,32.06
2022-10-18T17:38:33.119Z,31.96
2022-10-18T17:41:03.754Z,31.90
2022-10-18T17:43:31.661Z,32.40
2022-10-18T17:45:59.951Z,32.65
2022-10-18T17:48:29.506Z,32.91
2022-10-18T17:50:58.031Z,33.05
2022-10-18T17:53:31.156Z,32.91
2022-10-18T17:56:02.385Z,32.92
2022-10-18T17:58:30.709Z,32.92
2022-10-18T18:00:58.061Z,33.04
2022-10-18T18:03:25.726Z,33.27
2022-10-18T18:05:53.372Z,33.12
2022-10-18T18:08:23.811Z,32.78
2022-10-18T18:10:55.176Z,32.78
2022-10-18T18:13:22.393Z,32.74
2022-10-18T18:15:50.082Z,33.16
2022-10-18T18:18:17.884Z,33.19
2022-10-18T18:20:52.240Z,33.00
2022-10-18T18:23:23.175Z,32.87
2022-10-18T18:25:57.313Z,32.78
2022-10-18T18:28:25.262Z,32.87
2022-10-18T18:30:52.838Z,32.99
2022-10-18T18:33:20.457Z,33.55
2022-10-18T18:35:58.267Z,33.71
2022-10-18T18:38:26.020Z,33.78
2022-10-18T18:41:09.002Z,33.60
2022-10-18T18:43:36.704Z,33.79
2022-10-18T18:46:04.736Z,34.50
2022-10-18T18:48:32.928Z,34.09
2022-10-18T18:51:00.632Z,34.37
2022-10-18T18:53:29.738Z,34.45
2022-10-18T18:56:08.196Z,34.27
2022-10-18T18:58:36.193Z,34.31
2022-10-18T19:01:20.030Z,34.53
2022-10-18T19:03:48.855Z,34.38
2022-10-18T19:06:18.188Z,34.55
2022-10-18T19:08:45.671Z,35.10
2022-10-18T19:11:14.149Z,34.92
2022-10-18T19:13:41.700Z,34.95
2022-10-18T19:16:17.978Z,35.03
2022-10-18T19:18:52.199Z,34.61
2022-10-18T19:21:20.029Z,34.76
2022-10-18T19:23:48.029Z,34.30
2022-10-18T19:26:22.565Z,34.37
2022-10-18T19:28:50.094Z,34.29
2022-10-18T19:31:17.272Z,34.36
2022-10-18T19:33:48.801Z,34.63
2022-10-18T19:36:26.353Z,34.72
2022-10-18T19:38:53.473Z,35.36
2022-10-18T19:41:20.641Z,35.18
2022-10-18T19:43:48.520Z,35.13
2022-10-18T19:46:16.552Z,35.27
2022-10-18T19:48:44.522Z,34.75
2022-10-18T19:51:15.974Z,34.48
2022-10-18T19:53:47.001Z,34.34
2022-10-18T19:56:22.245Z,34.37
2022-10-18T19:58:50.062Z,34.60
2022-10-18T20:01:18.091Z,34.48
2022-10-18T20:03:46.082Z,34.57
2022-10-18T20:06:13.517Z,34.60
2022-10-18T20:11:15.148Z,34.29
2022-10-18T20:13:42.810Z,34.16
2022-10-18T20:16:11.169Z,34.44
2022-10-18T20:18:38.757Z,34.96
2022-10-18T20:21:09.411Z,34.91
2022-10-18T20:23:37.966Z,34.96
2022-10-18T20:26:06.629Z,34.71
2022-10-18T20:28:33.851Z,34.65
2022-10-18T20:31:01.669Z,34.49
2022-10-18T20:33:29.077Z,34.46
2022-10-18T20:35:56.262Z,34.50
2022-10-18T20:38:23.417Z,34.41
2022-10-18T20:40:51.092Z,34.40
2022-10-18T20:43:18.665Z,34.40
2022-10-18T20:45:45.824Z,34.30
2022-10-18T20:48:13.615Z,34.60
2022-10-18T20:50:41.064Z,34.81
2022-10-18T20:53:08.712Z,34.76
2022-10-18T20:55:38.761Z,34.84
2022-10-18T20:58:06.742Z,35.31
2022-10-18T21:00:34.218Z,35.01
2022-10-18T21:03:01.729Z,35.08
2022-10-18T21:05:30.202Z,35.36
2022-10-18T21:07:57.587Z,35.13
2022-10-18T21:10:25.471Z,35.09
2022-10-18T21:12:52.708Z,35.25
2022-10-18T21:15:19.857Z,34.90
2022-10-18T21:17:51.292Z,34.92
2022-10-18T21:20:18.445Z,34.98
2022-10-18T21:22:45.649Z,35.13
2022-10-18T21:25:13.121Z,35.29
2022-10-18T21:27:40.242Z,35.31
2022-10-18T21:30:07.518Z,34.89
2022-10-18T21:32:35.465Z,35.01
2022-10-18T21:35:02.935Z,35.07
2022-10-18T21:37:30.116Z,35.02
2022-10-18T21:39:57.527Z,35.08
2022-10-18T21:42:24.632Z,35.24
2022-10-18T21:44:51.744Z,35.40
2022-10-18T21:47:19.168Z,35.35
2022-10-18T21:49:46.322Z,35.90
2022-10-18T21:52:13.470Z,35.38
2022-10-18T21:54:40.879Z,35.21
2022-10-18T21:57:08.009Z,35.18
2022-10-18T21:59:35.124Z,35.28
2022-10-18T22:02:02.972Z,35.23
2022-10-18T22:04:35.821Z,35.21
2022-10-18T22:07:04.038Z,34.97
2022-10-18T22:09:31.502Z,35.07
2022-10-18T22:11:58.946Z,35.01
2022-10-18T22:14:26.096Z,35.42
2022-10-18T22:16:53.501Z,35.62
2022-10-18T22:19:20.636Z,35.42
2022-10-18T22:21:47.791Z,35.89
2022-10-18T22:24:15.195Z,35.70
2022-10-18T22:26:42.666Z,35.80
2022-10-18T22:29:17.016Z,35.60
2022-10-18T22:31:45.589Z,35.79
2022-10-18T22:34:13.753Z,35.66
2022-10-18T22:36:40.882Z,35.61
2022-10-18T22:39:08.598Z,35.17
2022-10-18T22:41:35.922Z,35.27
2022-10-18T22:44:03.852Z,34.92
2022-10-18T22:46:32.734Z,35.28
2022-10-18T22:48:59.857Z,35.01
2022-10-18T22:51:27.082Z,35.04
2022-10-18T22:53:54.491Z,34.94
2022-10-18T22:56:21.886Z,35.50
2022-10-18T22:58:49.151Z,35.51
2022-10-18T23:01:21.358Z,35.52
2022-10-18T23:03:58.654Z,36.43
2022-10-18T23:06:29.912Z,36.14
2022-10-18T23:08:57.731Z,36.16
2022-10-18T23:11:25.035Z,36.99
2022-10-18T23:13:52.517Z,35.83
2022-10-18T23:16:19.651Z,36.62
2022-10-18T23:18:53.869Z,36.03
2022-10-18T23:21:23.754Z,36.21
2022-10-18T23:23:51.072Z,36.04
2022-10-18T23:26:19.391Z,36.32
2022-10-18T23:28:47.378Z,36.32
2022-10-18T23:31:17.999Z,35.94
2022-10-18T23:33:45.772Z,36.06
2022-10-18T23:36:13.140Z,36.06
2022-10-18T23:38:40.484Z,35.81
2022-10-18T23:41:08.344Z,36.05
2022-10-18T23:43:35.853Z,36.58
2022-10-18T23:46:03.264Z,36.31
2022-10-18T23:48:30.376Z,36.36
2022-10-18T23:50:58.219Z,36.99
2022-10-18T23:53:25.409Z,37.05
2022-10-18T23:55:56.516Z,37.82
2022-10-18T23:58:24.221Z,37.41
